Time,TemperatureF,DewpointF,PressureIn,WindDirection,WindDirectionDegrees,WindSpeedMPH,WindSpeedGustMPH,Humidity,HourlyPrecipIn,Conditions,Clouds,dailyrainin,SoftwareType,DateUTC
2013-02-23 00:03:00,72.0,63.0,30.03,SSW,195,8.0,12.0,73,0.48,,,-99.99,,2013-02-23 05:03:00,
2013-02-23 00:12:00,72.0,63.0,30.03,SSW,195,8.0,12.0,73,0.48,,,-99.99,,2013-02-23 05:12:00,
2013-02-23 00:22:00,71.0,64.0,30.03,South,186,8.0,11.0,79,0.48,,,-99.99,,2013-02-23 05:22:00,
2013-02-23 00:33:00,70.0,65.0,30.03,South,177,7.0,10.0,84,0.48,,,-99.99,,2013-02-23 05:33:00,
2013-02-23 00:42:00,70.0,65.0,30.03,South,177,7.0,10.0,84,0.48,,,-99.99,,2013-02-23 05:42:00,
2013-02-23 00:52:00,70.0,65.0,30.02,South,191,5.0,7.0,85,0.48,,,-99.99,,2013-02-23 05:52:00,
2013-02-23 01:01:00,70.0,68.0,30.02,SSW,195,4.0,7.0,93,0.48,,,-99.99,,2013-02-23 06:01:00,
2013-02-23 01:11:00,70.0,68.0,30.02,SSW,195,4.0,7.0,93,0.48,,,-99.99,,2013-02-23 06:11:00,
2013-02-23 01:22:00,70.0,69.0,30.02,South,180,4.0,6.0,96,0.48,,,-99.99,,2013-02-23 06:22:00,
2013-02-23 01:32:00,70.0,70.0,30.02,South,190,4.0,5.0,99,0.48,,,-99.99,,2013-02-23 06:32:00,
2013-02-23 01:42:00,70.0,70.0,30.02,South,190,4.0,5.0,99,0.48,,,-99.99,,2013-02-23 06:42:00,
2013-02-23 01:52:00,70.0,70.0,30.02,SSE,163,0.0,3.0,99,0.48,,,-99.99,,2013-02-23 06:52:00,
2013-02-23 02:01:00,70.0,70.0,30.01,SSE,166,3.0,4.0,99,0.48,,,-99.99,,2013-02-23 07:01:00,
2013-02-23 02:11:00,70.0,70.0,30.00,SSE,159,4.0,9.0,100,0.48,,,-99.99,,2013-02-23 07:11:00,
2013-02-23 02:21:00,70.0,70.0,30.00,SSE,159,4.0,9.0,100,0.48,,,-99.99,,2013-02-23 07:21:00,
2013-02-23 02:32:00,70.0,70.0,30.00,SSE,166,6.0,9.0,100,0.48,,,-99.99,,2013-02-23 07:32:00,
2013-02-23 02:42:00,70.0,70.0,30.00,SSE,166,6.0,9.0,100,0.48,,,-99.99,,2013-02-23 07:42:00,
2013-02-23 02:52:00,70.0,70.0,30.00,SSE,160,6.0,11.0,100,0.48,,,-99.99,,2013-02-23 07:52:00,
2013-02-23 03:01:00,70.0,70.0,29.99,SSE,156,7.0,10.0,100,0.48,,,-99.99,,2013-02-23 08:01:00,
2013-02-23 03:11:00,70.0,70.0,29.99,SSE,156,7.0,10.0,100,0.48,,,-99.99,,2013-02-23 08:11:00,
2013-02-23 03:21:00,70.0,70.0,29.99,South,188,6.0,9.0,100,0.48,,,-99.99,,2013-02-23 08:21:00,
2013-02-23 03:32:00,70.0,70.0,29.99,SSW,193,6.0,9.0,100,0.48,,,-99.99,,2013-02-23 08:32:00,
2013-02-23 03:42:00,70.0,70.0,29.99,SSW,193,6.0,9.0,100,0.48,,,-99.99,,2013-02-23 08:42:00,
2013-02-23 03:53:00,70.0,70.0,29.98,SSE,167,5.0,7.0,100,0.48,,,-99.99,,2013-02-23 08:53:00,
2013-02-23 04:02:00,70.0,70.0,29.98,SSW,194,5.0,9.0,100,0.48,,,-99.99,,2013-02-23 09:02:00,
2013-02-23 04:11:00,70.0,70.0,29.98,SSW,194,5.0,9.0,100,0.48,,,-99.99,,2013-02-23 09:11:00,
2013-02-23 04:21:00,70.0,70.0,29.98,SSW,200,6.0,9.0,100,0.48,,,-99.99,,2013-02-23 09:21:00,
2013-02-23 04:32:00,70.0,70.0,29.98,South,187,6.0,9.0,100,0.48,,,-99.99,,2013-02-23 09:32:00,
2013-02-23 04:42:00,70.0,70.0,29.98,South,187,6.0,9.0,100,0.48,,,-99.99,,2013-02-23 09:42:00,
2013-02-23 04:52:00,70.0,70.0,29.98,SSE,165,7.0,11.0,100,0.48,,,-99.99,,2013-02-23 09:52:00,
2013-02-23 05:01:00,70.0,70.0,29.98,SSW,194,8.0,12.0,100,0.48,,,-99.99,,2013-02-23 10:01:00,
2013-02-23 05:11:00,70.0,70.0,29.98,SSW,197,9.0,13.0,100,0.48,,,-99.99,,2013-02-23 10:11:00,
2013-02-23 05:21:00,70.0,70.0,29.98,SSW,197,9.0,13.0,100,0.48,,,-99.99,,2013-02-23 10:21:00,
2013-02-23 05:32:00,70.0,70.0,29.98,SSE,166,8.0,12.0,99,0.48,,,-99.99,,2013-02-23 10:32:00,
2013-02-23 05:42:00,70.0,70.0,29.98,SSE,166,8.0,12.0,99,0.48,,,-99.99,,2013-02-23 10:42:00,
2013-02-23 05:52:00,70.0,70.0,29.97,South,169,9.0,18.0,100,0.48,,,-99.99,,2013-02-23 10:52:00,
2013-02-23 06:02:00,70.0,70.0,29.98,South,187,8.0,12.0,100,0.48,,,-99.99,,2013-02-23 11:02:00,
2013-02-23 06:11:00,70.0,70.0,29.98,South,187,8.0,12.0,100,0.48,,,-99.99,,2013-02-23 11:11:00,
2013-02-23 06:22:00,70.0,70.0,29.97,SSW,200,8.0,13.0,100,0.48,,,-99.99,,2013-02-23 11:22:00,
2013-02-23 06:32:00,70.0,70.0,29.98,SSW,195,7.0,12.0,100,0.48,,,-99.99,,2013-02-23 11:32:00,
2013-02-23 06:42:00,70.0,70.0,29.98,SSW,195,7.0,12.0,100,0.48,,,-99.99,,2013-02-23 11:42:00,
2013-02-23 06:52:00,70.0,70.0,29.98,South,190,8.0,12.0,100,0.48,,,-99.99,,2013-02-23 11:52:00,
2013-02-23 07:02:00,69.0,69.0,29.98,South,180,7.0,11.0,100,0.48,,,-99.99,,2013-02-23 12:02:00,
2013-02-23 07:11:00,69.0,69.0,29.98,South,180,7.0,11.0,100,0.48,,,-99.99,,2013-02-23 12:11:00,
2013-02-23 07:21:00,69.0,69.0,29.98,South,187,7.0,10.0,100,0.48,,,-99.99,,2013-02-23 12:21:00,
2013-02-23 07:32:00,69.0,69.0,29.98,SSW,193,6.0,8.0,100,0.48,,,-99.99,,2013-02-23 12:32:00,
2013-02-23 07:42:00,69.0,69.0,29.98,SSW,193,6.0,8.0,100,0.48,,,-99.99,,2013-02-23 12:42:00,
2013-02-23 07:52:00,69.0,69.0,29.98,SSW,197,8.0,12.0,100,0.48,,,-99.99,,2013-02-23 12:52:00,
2013-02-23 08:01:00,70.0,70.0,29.99,SSW,193,8.0,11.0,100,0.48,,,-99.99,,2013-02-23 13:01:00,
2013-02-23 08:11:00,70.0,70.0,29.99,SSW,198,10.0,18.0,100,0.48,,,-99.99,,2013-02-23 13:11:00,
2013-02-23 08:22:00,70.0,70.0,29.99,SSW,198,10.0,18.0,100,0.48,,,-99.99,,2013-02-23 13:22:00,
2013-02-23 08:32:00,71.0,71.0,30.00,South,187,10.0,15.0,100,0.48,,,-99.99,,2013-02-23 13:32:00,
2013-02-23 08:42:00,71.0,69.0,30.00,South,190,9.0,15.0,95,0.48,,,-99.99,,2013-02-23 13:42:00,
2013-02-23 08:52:00,71.0,69.0,30.00,South,190,9.0,15.0,95,0.48,,,-99.99,,2013-02-23 13:52:00,
2013-02-23 09:02:00,72.0,67.0,30.01,South,190,11.0,16.0,85,0.48,,,-99.99,,2013-02-23 14:02:00,
2013-02-23 09:11:00,73.0,67.0,30.01,SSW,197,9.0,14.0,82,0.48,,,-99.99,,2013-02-23 14:11:00,
2013-02-23 09:21:00,73.0,67.0,30.01,SSW,197,9.0,14.0,82,0.48,,,-99.99,,2013-02-23 14:21:00,
2013-02-23 09:32:00,73.0,65.0,30.01,SSW,200,9.0,13.0,77,0.48,,,-99.99,,2013-02-23 14:32:00,
2013-02-23 09:42:00,73.0,65.0,30.01,SSW,200,9.0,13.0,77,0.48,,,-99.99,,2013-02-23 14:42:00,
2013-02-23 09:52:00,73.0,64.0,30.01,SSW,200,13.0,18.0,74,0.48,,,-99.99,,2013-02-23 14:52:00,
2013-02-23 10:02:00,73.0,64.0,30.01,SSW,195,11.0,16.0,74,0.48,,,-99.99,,2013-02-23 15:02:00,
2013-02-23 10:11:00,73.0,64.0,30.01,SSW,195,11.0,16.0,74,0.48,,,-99.99,,2013-02-23 15:11:00,
2013-02-23 10:22:00,74.0,64.0,30.01,SSW,198,12.0,18.0,72,0.48,,,-99.99,,2013-02-23 15:22:00,
2013-02-23 10:32:00,75.0,65.0,30.00,SW,215,12.0,18.0,71,0.48,,,-99.99,,2013-02-23 15:32:00,
2013-02-23 10:42:00,75.0,65.0,30.00,SW,215,12.0,18.0,71,0.48,,,-99.99,,2013-02-23 15:42:00,
2013-02-23 10:52:00,75.0,65.0,30.00,SSW,197,11.0,16.0,71,0.48,,,-99.99,,2013-02-23 15:52:00,
2013-02-23 11:01:00,75.0,65.0,30.00,SSW,203,13.0,19.0,71,0.48,,,-99.99,,2013-02-23 16:01:00,
2013-02-23 11:11:00,75.0,65.0,30.00,SSW,203,13.0,19.0,71,0.48,,,-99.99,,2013-02-23 16:11:00,
2013-02-23 11:21:00,78.0,65.0,29.99,SSW,210,14.0,20.0,64,0.48,,,-99.99,,2013-02-23 16:21:00,
2013-02-23 11:31:00,79.0,66.0,29.99,SSW,203,12.0,18.0,64,0.48,,,-99.99,,2013-02-23 16:31:00,
2013-02-23 11:42:00,79.0,66.0,29.99,SSW,203,12.0,18.0,64,0.48,,,-99.99,,2013-02-23 16:42:00,
2013-02-23 11:52:00,81.0,66.0,29.99,SSW,198,11.0,18.0,61,0.48,,,-99.99,,2013-02-23 16:52:00,
2013-02-23 12:01:00,80.0,66.0,29.98,WSW,245,11.0,17.0,62,0.48,,,-99.99,,2013-02-23 17:01:00,
2013-02-23 12:11:00,80.0,65.0,29.98,SSW,207,13.0,19.0,61,0.48,,,-99.99,,2013-02-23 17:11:00,
2013-02-23 12:21:00,80.0,65.0,29.98,SSW,207,13.0,19.0,61,0.48,,,-99.99,,2013-02-23 17:21:00,
2013-02-23 12:32:00,82.0,65.0,29.97,SSW,200,13.0,19.0,57,0.48,,,-99.99,,2013-02-23 17:32:00,
2013-02-23 12:42:00,82.0,65.0,29.97,SSW,200,13.0,19.0,57,0.48,,,-99.99,,2013-02-23 17:42:00,
2013-02-23 12:52:00,81.0,65.0,29.97,SSW,208,12.0,17.0,59,0.48,,,-99.99,,2013-02-23 17:52:00,
2013-02-23 13:02:00,82.0,65.0,29.96,WSW,248,10.0,13.0,56,0.48,,,-99.99,,2013-02-23 18:02:00,
2013-02-23 13:12:00,82.0,65.0,29.96,WSW,248,10.0,13.0,56,0.48,,,-99.99,,2013-02-23 18:12:00,
2013-02-23 13:22:00,82.0,64.0,29.95,SSW,207,10.0,19.0,54,0.48,,,-99.99,,2013-02-23 18:22:00,
2013-02-23 13:32:00,84.0,63.0,29.94,SW,219,11.0,16.0,50,0.48,,,-99.99,,2013-02-23 18:32:00,
2013-02-23 13:42:00,84.0,63.0,29.94,SW,219,11.0,16.0,50,0.48,,,-99.99,,2013-02-23 18:42:00,
2013-02-23 13:52:00,83.0,62.0,29.93,WSW,242,12.0,19.0,50,0.48,,,-99.99,,2013-02-23 18:52:00,
2013-02-23 14:01:00,85.0,63.0,29.92,West,263,13.0,19.0,48,0.48,,,-99.99,,2013-02-23 19:01:00,
2013-02-23 14:11:00,85.0,62.0,29.91,WSW,253,15.0,22.0,47,0.48,,,-99.99,,2013-02-23 19:11:00,
2013-02-23 14:21:00,85.0,62.0,29.91,WSW,253,15.0,22.0,47,0.48,,,-99.99,,2013-02-23 19:21:00,
2013-02-23 14:32:00,85.0,62.0,29.91,SW,235,12.0,19.0,46,0.48,,,-99.99,,2013-02-23 19:32:00,
2013-02-23 14:41:00,85.0,62.0,29.91,SW,235,12.0,19.0,46,0.48,,,-99.99,,2013-02-23 19:41:00,
2013-02-23 14:52:00,86.0,62.0,29.90,WSW,256,16.0,23.0,44,0.48,,,-99.99,,2013-02-23 19:52:00,
2013-02-23 15:01:00,86.0,62.0,29.90,WSW,255,17.0,24.0,45,0.48,,,-99.99,,2013-02-23 20:01:00,
2013-02-23 15:11:00,86.0,62.0,29.90,WSW,255,17.0,24.0,45,0.48,,,-99.99,,2013-02-23 20:11:00,
2013-02-23 15:21:00,86.0,63.0,29.90,SSW,197,12.0,19.0,47,0.48,,,-99.99,,2013-02-23 20:21:00,
2013-02-23 15:32:00,85.0,61.0,29.90,SW,229,15.0,21.0,45,0.48,,,-99.99,,2013-02-23 20:32:00,
2013-02-23 15:42:00,85.0,61.0,29.90,SW,229,15.0,21.0,45,0.48,,,-99.99,,2013-02-23 20:42:00,
2013-02-23 15:53:00,85.0,63.0,29.90,SSW,212,15.0,22.0,48,0.48,,,-99.99,,2013-02-23 20:53:00,
2013-02-23 16:01:00,85.0,62.0,29.90,WSW,242,16.0,22.0,47,0.48,,,-99.99,,2013-02-23 21:01:00,
2013-02-23 16:11:00,85.0,61.0,29.89,WSW,250,16.0,23.0,45,0.48,,,-99.99,,2013-02-23 21:11:00,
2013-02-23 16:22:00,85.0,61.0,29.89,WSW,250,16.0,23.0,45,0.48,,,-99.99,,2013-02-23 21:22:00,
2013-02-23 16:32:00,85.0,61.0,29.89,West,260,16.0,24.0,45,0.48,,,-99.99,,2013-02-23 21:32:00,
2013-02-23 16:42:00,85.0,61.0,29.89,West,260,16.0,24.0,45,0.48,,,-99.99,,2013-02-23 21:42:00,
2013-02-23 16:52:00,84.0,62.0,29.89,WSW,242,14.0,20.0,48,0.48,,,-99.99,,2013-02-23 21:52:00,
2013-02-23 17:01:00,83.0,62.0,29.89,WSW,238,13.0,18.0,49,0.48,,,-99.99,,2013-02-23 22:01:00,
2013-02-23 17:11:00,83.0,63.0,29.89,WSW,239,13.0,17.0,51,0.48,,,-99.99,,2013-02-23 22:11:00,
2013-02-23 17:22:00,83.0,63.0,29.89,WSW,239,13.0,17.0,51,0.48,,,-99.99,,2013-02-23 22:22:00,
2013-02-23 17:32:00,82.0,63.0,29.89,WSW,242,10.0,14.0,52,0.48,,,-99.99,,2013-02-23 22:32:00,
2013-02-23 17:42:00,82.0,63.0,29.89,WSW,242,10.0,14.0,52,0.48,,,-99.99,,2013-02-23 22:42:00,
2013-02-23 17:52:00,82.0,63.0,29.90,WSW,240,12.0,16.0,52,0.48,,,-99.99,,2013-02-23 22:52:00,
2013-02-23 18:01:00,82.0,63.0,29.90,WSW,250,11.0,16.0,53,0.48,,,-99.99,,2013-02-23 23:01:00,
2013-02-23 18:11:00,81.0,64.0,29.90,SW,231,7.0,10.0,56,0.48,,,-99.99,,2013-02-23 23:11:00,
2013-02-23 18:21:00,81.0,64.0,29.90,SW,231,7.0,10.0,56,0.48,,,-99.99,,2013-02-23 23:21:00,
2013-02-23 18:31:00,80.0,64.0,29.91,WSW,243,8.0,10.0,59,0.48,,,-99.99,,2013-02-23 23:31:00,
2013-02-23 18:42:00,80.0,64.0,29.91,WSW,243,8.0,10.0,59,0.48,,,-99.99,,2013-02-23 23:42:00,
2013-02-23 18:52:00,79.0,64.0,29.91,West,264,6.0,8.0,61,0.48,,,-99.99,,2013-02-23 23:52:00,
2013-02-23 19:01:00,78.0,65.0,29.91,WSW,245,6.0,8.0,64,0.48,,,-99.99,,2013-02-24 00:01:00,
2013-02-23 19:11:00,77.0,65.0,29.92,WSW,248,6.0,8.0,66,0.48,,,-99.99,,2013-02-24 00:11:00,
2013-02-23 19:22:00,77.0,65.0,29.92,WSW,248,6.0,8.0,66,0.48,,,-99.99,,2013-02-24 00:22:00,
2013-02-23 19:32:00,76.0,64.0,29.92,WSW,240,6.0,7.0,67,0.48,,,-99.99,,2013-02-24 00:32:00,
2013-02-23 19:42:00,76.0,64.0,29.92,WSW,240,6.0,7.0,67,0.48,,,-99.99,,2013-02-24 00:42:00,
2013-02-23 19:52:00,76.0,65.0,29.93,SW,224,6.0,7.0,68,0.48,,,-99.99,,2013-02-24 00:52:00,
2013-02-23 20:01:00,75.0,65.0,29.93,WSW,240,6.0,8.0,70,0.48,,,-99.99,,2013-02-24 01:01:00,
2013-02-23 20:11:00,75.0,65.0,29.93,WSW,240,6.0,8.0,70,0.48,,,-99.99,,2013-02-24 01:11:00,
2013-02-23 20:22:00,74.0,64.0,29.93,WSW,242,6.0,7.0,71,0.48,,,-99.99,,2013-02-24 01:22:00,
2013-02-23 20:31:00,74.0,64.0,29.93,WSW,246,5.0,6.0,72,0.48,,,-99.99,,2013-02-24 01:31:00,
2013-02-23 20:42:00,74.0,64.0,29.93,WSW,246,5.0,6.0,72,0.48,,,-99.99,,2013-02-24 01:42:00,
2013-02-23 20:52:00,73.0,63.0,29.93,WSW,249,5.0,7.0,72,0.48,,,-99.99,,2013-02-24 01:52:00,
2013-02-23 21:01:00,73.0,63.0,29.94,SW,232,6.0,7.0,72,0.48,,,-99.99,,2013-02-24 02:01:00,
2013-02-23 21:11:00,73.0,63.0,29.94,SW,232,6.0,7.0,72,0.48,,,-99.99,,2013-02-24 02:11:00,
2013-02-23 21:22:00,72.0,63.0,29.94,WSW,240,6.0,7.0,74,0.48,,,-99.99,,2013-02-24 02:22:00,
2013-02-23 21:32:00,72.0,64.0,29.94,WSW,245,6.0,7.0,75,0.48,,,-99.99,,2013-02-24 02:32:00,
2013-02-23 21:42:00,72.0,64.0,29.94,WSW,245,6.0,7.0,75,0.48,,,-99.99,,2013-02-24 02:42:00,
2013-02-23 21:52:00,72.0,64.0,29.94,SW,233,6.0,7.0,77,0.48,,,-99.99,,2013-02-24 02:52:00,
2013-02-23 22:02:00,71.0,65.0,29.95,WSW,239,5.0,6.0,80,0.48,,,-99.99,,2013-02-24 03:02:00,
2013-02-23 22:11:00,71.0,66.0,29.95,SW,235,5.0,6.0,83,0.48,,,-99.99,,2013-02-24 03:11:00,
2013-02-23 22:22:00,71.0,66.0,29.95,SW,235,5.0,6.0,83,0.48,,,-99.99,,2013-02-24 03:22:00,
2013-02-23 22:32:00,70.0,66.0,29.95,SW,235,6.0,7.0,87,0.48,,,-99.99,,2013-02-24 03:32:00,
2013-02-23 22:42:00,70.0,66.0,29.95,SW,235,6.0,7.0,87,0.48,,,-99.99,,2013-02-24 03:42:00,
2013-02-23 22:52:00,70.0,67.0,29.96,SW,229,5.0,6.0,90,0.48,,,-99.99,,2013-02-24 03:52:00,
2013-02-23 23:01:00,70.0,68.0,29.96,SW,231,5.0,5.0,93,0.48,,,-99.99,,2013-02-24 04:01:00,
2013-02-23 23:11:00,70.0,68.0,29.96,SW,231,5.0,5.0,93,0.48,,,-99.99,,2013-02-24 04:11:00,
2013-02-23 23:21:00,69.0,69.0,29.96,WSW,246,5.0,6.0,99,0.48,,,-99.99,,2013-02-24 04:21:00,
2013-02-23 23:32:00,69.0,69.0,29.95,WSW,239,6.0,8.0,100,0.48,,,-99.99,,2013-02-24 04:32:00,
2013-02-23 23:42:00,69.0,69.0,29.95,WSW,239,6.0,8.0,100,0.48,,,-99.99,,2013-02-24 04:42:00,
2013-02-23 23:52:00,69.0,69.0,29.95,WSW,239,6.0,7.0,100,0.48,,,-99.99,,2013-02-24 04:52:00,